Time;durP1;ratioP1;P1;durP2;ratioP2;P2;SDS_P1;SDS_P2;PMS_P1;PMS_P2;Temp;Humidity;BMP_temperature;BMP_pressure;BME280_temperature;BME280_humidity;BME280_pressure;Samples;Min_cycle;Max_cycle;Signal;HPM_P1;HPM_P2
2022/01/15 00:00:00;;;;;;;53.90;21.07;;;4.30;87.00;;;;;;4974705;28;20960;-74
2022/01/15 00:02:26;;;;;;;43.05;18.15;;;4.60;82.50;;;;;;4974229;28;20407;-74
2022/01/15 00:04:52;;;;;;;41.65;17.70;;;4.70;74.90;;;;;;4973837;28;20761;-73
2022/01/15 00:07:18;;;;;;;41.23;18.13;;;4.70;72.60;;;;;;4988846;28;20456;-74
2022/01/15 00:09:49;;;;;;;40.22;17.60;;;4.70;72.10;;;;;;4990166;28;20412;-75
2022/01/15 00:12:14;;;;;;;44.90;18.95;;;4.70;71.90;;;;;;4981687;28;20391;-74
2022/01/15 00:14:42;;;;;;;45.97;19.33;;;4.50;73.70;;;;;;4970466;28;20414;-75
2022/01/15 00:17:15;;;;;;;54.53;21.38;;;4.30;76.80;;;;;;4971768;28;20761;-74
2022/01/15 00:22:17;;;;;;;46.10;18.60;;;4.00;81.90;;;;;;4987576;28;20407;-73
2022/01/15 00:24:43;;;;;;;43.95;19.90;;;4.00;83.40;;;;;;4983517;28;20419;-75
2022/01/15 00:27:10;;;;;;;44.45;18.75;;;4.00;83.90;;;;;;4985442;28;20400;-75
2022/01/15 00:29:37;;;;;;;36.72;16.90;;;3.90;83.70;;;;;;4975570;28;20403;-75
2022/01/15 00:32:05;;;;;;;40.10;17.92;;;4.00;85.00;;;;;;4974117;28;20886;-75
2022/01/15 00:34:31;;;;;;;34.90;16.92;;;3.90;84.90;;;;;;4973465;28;20407;-74
2022/01/15 00:36:57;;;;;;;40.58;17.67;;;3.90;85.00;;;;;;4967290;28;20761;-73
2022/01/15 00:39:23;;;;;;;40.50;18.25;;;3.90;86.10;;;;;;4972870;28;20408;-74
2022/01/15 00:41:49;;;;;;;42.00;18.15;;;3.90;87.80;;;;;;4973435;28;20418;-74
2022/01/15 00:44:15;;;;;;;44.15;18.50;;;3.90;88.30;;;;;;4974252;28;20484;-76
2022/01/15 00:46:41;;;;;;;42.22;17.15;;;3.90;88.30;;;;;;4979296;28;20408;-76
2022/01/15 00:49:06;;;;;;;44.93;18.17;;;3.90;88.00;;;;;;4973834;28;20395;-75
2022/01/15 00:51:32;;;;;;;39.60;17.40;;;4.00;88.10;;;;;;4969984;28;20445;-75
2022/01/15 00:53:58;;;;;;;38.50;17.90;;;3.90;87.80;;;;;;4969097;28;20913;-74
2022/01/15 00:56:23;;;;;;;42.88;18.33;;;3.90;88.70;;;;;;4974103;28;20388;-74
2022/01/15 00:58:52;;;;;;;44.08;18.33;;;3.90;90.20;;;;;;4973477;28;20498;-74
2022/01/15 01:01:17;;;;;;;46.70;18.40;;;3.90;90.10;;;;;;4973816;28;20384;-74
2022/01/15 01:03:43;;;;;;;42.15;18.08;;;4.00;89.60;;;;;;4974150;28;20395;-74
2022/01/15 01:06:08;;;;;;;43.23;17.90;;;3.90;90.30;;;;;;4969466;28;20392;-74
2022/01/15 01:08:34;;;;;;;43.50;18.83;;;3.90;90.90;;;;;;4974885;28;20389;-74
2022/01/15 01:11:03;;;;;;;43.23;17.60;;;3.90;91.10;;;;;;4974971;28;20396;-76
2022/01/15 01:24:19;;;;;;;39.67;16.98;;;4.00;89.40;;;;;;4977445;28;20399;-76
2022/01/15 01:32:01;;;;;;;42.58;17.35;;;4.00;89.10;;;;;;4973059;28;20455;-74
2022/01/15 01:34:30;;;;;;;43.53;19.00;;;4.00;89.50;;;;;;4971602;28;20419;-75
2022/01/15 01:37:09;;;;;;;48.20;18.83;;;4.00;89.70;;;;;;4972599;28;20439;-74
2022/01/15 01:39:45;;;;;;;51.25;19.27;;;3.90;89.30;;;;;;4972760;28;20400;-76
2022/01/15 01:44:42;;;;;;;49.15;19.13;;;3.90;88.40;;;;;;4972957;28;20486;-76
2022/01/15 01:47:24;;;;;;;45.77;19.13;;;4.00;86.80;;;;;;4966207;28;20852;-74
2022/01/15 01:49:49;;;;;;;40.67;17.65;;;4.00;85.10;;;;;;4974470;28;20392;-75
2022/01/15 01:52:15;;;;;;;40.20;18.30;;;3.90;85.10;;;;;;4973444;28;20414;-74
2022/01/15 01:54:41;;;;;;;42.95;18.85;;;3.90;86.30;;;;;;4973256;28;20412;-75
2022/01/15 01:57:06;;;;;;;43.78;17.83;;;3.80;87.00;;;;;;4964800;28;20903;-75
2022/01/15 01:59:32;;;;;;;47.60;19.73;;;3.80;88.10;;;;;;4964734;28;20434;-75
2022/01/15 02:01:58;;;;;;;44.35;18.42;;;3.80;89.60;;;;;;4968612;28;20400;-76
2022/01/15 02:04:24;;;;;;;42.40;18.57;;;3.90;90.50;;;;;;4971767;28;20483;-74
2022/01/15 02:06:50;;;;;;;45.10;19.03;;;3.90;90.90;;;;;;4973420;28;20391;-74
2022/01/15 02:09:16;;;;;;;44.63;18.27;;;3.90;90.00;;;;;;4968568;28;20434;-74
2022/01/15 02:11:43;;;;;;;44.67;18.75;;;3.90;89.20;;;;;;4965716;28;20955;-74
2022/01/15 02:14:08;;;;;;;45.05;17.65;;;3.90;88.70;;;;;;4969229;28;20778;-73
2022/01/15 02:16:34;;;;;;;42.88;17.27;;;4.00;88.90;;;;;;4972905;28;20388;-73
2022/01/15 02:19:00;;;;;;;39.50;17.30;;;3.90;88.50;;;;;;4975644;28;20395;-73
2022/01/15 02:24:17;;;;;;;46.25;18.30;;;4.00;89.20;;;;;;4961809;28;20404;-74
2022/01/15 02:26:43;;;;;;;44.85;16.90;;;4.10;87.80;;;;;;4978193;28;20494;-73
2022/01/15 02:29:09;;;;;;;44.65;17.90;;;4.00;87.30;;;;;;4966267;28;20513;-73
2022/01/15 02:31:36;;;;;;;41.00;18.38;;;3.90;86.70;;;;;;4976248;28;20396;-73
2022/01/15 02:34:04;;;;;;;42.08;17.80;;;3.90;87.00;;;;;;4975724;28;20447;-74
2022/01/15 02:36:32;;;;;;;40.47;18.42;;;3.90;87.90;;;;;;4969391;28;20867;-74
2022/01/15 02:38:58;;;;;;;42.70;16.60;;;3.90;89.00;;;;;;4978730;28;20451;-74
2022/01/15 02:41:36;;;;;;;36.90;17.10;;;3.90;88.20;;;;;;4976760;28;20400;-73
2022/01/15 02:44:10;;;;;;;38.38;16.08;;;3.90;87.90;;;;;;4975167;28;20464;-74
2022/01/15 02:48:00;;;;;;;40.72;16.80;;;3.90;87.00;;;;;;4984794;28;20416;-74
2022/01/15 02:49:23;;;;;;;34.92;14.32;;;3.80;86.60;;;;;;4969100;28;20400;-73
2022/01/15 02:51:49;;;;;;;37.10;16.30;;;3.90;85.10;;;;;;4974412;28;20490;-74
2022/01/15 02:54:14;;;;;;;33.85;15.00;;;3.90;84.10;;;;;;4979633;28;20455;-74
2022/01/15 02:56:42;;;;;;;35.33;15.13;;;3.80;84.10;;;;;;4978477;28;20447;-74
2022/01/15 02:59:20;;;;;;;33.08;14.57;;;3.80;86.80;;;;;;4970090;28;20429;-74
2022/01/15 03:01:48;;;;;;;37.00;15.65;;;3.90;83.90;;;;;;4972029;28;20396;-74
2022/01/15 03:04:14;;;;;;;32.15;13.68;;;3.80;84.70;;;;;;4977425;28;20404;-74
2022/01/15 03:06:40;;;;;;;30.27;14.50;;;3.80;84.70;;;;;;4976577;28;20908;-74
2022/01/15 03:09:05;;;;;;;29.42;13.68;;;3.80;83.70;;;;;;4976717;28;20392;-72
2022/01/15 03:11:31;;;;;;;27.07;12.37;;;3.90;84.10;;;;;;4976012;28;20516;-75
2022/01/15 03:13:57;;;;;;;24.47;12.93;;;3.90;78.80;;;;;;4976137;28;20415;-74
2022/01/15 03:16:23;;;;;;;25.93;12.07;;;3.90;79.40;;;;;;4966894;28;20909;-74
2022/01/15 03:18:49;;;;;;;25.08;12.60;;;3.90;78.00;;;;;;4974392;28;20495;-72
2022/01/15 03:21:15;;;;;;;27.13;13.43;;;3.90;78.40;;;;;;4975542;28;20397;-75
2022/01/15 03:23:41;;;;;;;26.53;13.50;;;3.90;77.60;;;;;;4974115;28;20406;-74
2022/01/15 03:26:08;;;;;;;24.77;13.65;;;3.80;77.90;;;;;;4975586;28;20523;-73
2022/01/15 03:28:35;;;;;;;27.27;14.20;;;3.80;79.20;;;;;;4974392;28;20401;-73
2022/01/15 03:31:01;;;;;;;28.63;13.53;;;3.80;79.60;;;;;;4974655;28;21091;-74
2022/01/15 03:33:26;;;;;;;28.02;14.30;;;3.80;79.40;;;;;;4974574;28;20408;-74
2022/01/15 03:35:52;;;;;;;29.35;14.30;;;3.70;79.50;;;;;;4975180;28;20388;-74
2022/01/15 03:38:18;;;;;;;29.70;14.27;;;3.70;80.20;;;;;;4974498;28;20890;-73
2022/01/15 03:40:43;;;;;;;26.90;14.40;;;3.80;79.80;;;;;;4954938;29;20811;-73
2022/01/15 03:43:10;;;;;;;26.58;13.35;;;3.90;77.20;;;;;;4972188;28;20898;-75
2022/01/15 03:45:35;;;;;;;29.45;14.27;;;3.80;77.90;;;;;;4981274;28;20741;-74
2022/01/15 03:48:02;;;;;;;28.23;14.05;;;3.80;78.40;;;;;;4996175;28;20441;-73
2022/01/15 03:50:28;;;;;;;32.83;14.75;;;3.70;78.20;;;;;;4996981;28;20383;-73
2022/01/15 03:52:55;;;;;;;28.40;14.13;;;3.70;79.60;;;;;;4968503;28;20427;-75
2022/01/15 03:55:21;;;;;;;27.50;13.70;;;3.70;80.80;;;;;;4975975;28;20412;-73
2022/01/15 03:57:47;;;;;;;28.15;13.85;;;3.70;80.60;;;;;;4975546;28;20471;-74
2022/01/15 04:00:24;;;;;;;27.02;13.43;;;3.60;81.80;;;;;;4975562;28;20384;-73
2022/01/15 04:02:50;;;;;;;26.27;14.40;;;3.50;84.20;;;;;;4975870;28;20400;-73
2022/01/15 04:05:16;;;;;;;27.45;14.32;;;3.40;86.70;;;;;;4968832;28;20431;-74
2022/01/15 04:07:42;;;;;;;29.00;13.77;;;3.40;88.90;;;;;;4972714;28;20394;-75
2022/01/15 04:10:10;;;;;;;24.58;14.15;;;3.50;89.30;;;;;;4969482;28;20400;-73
2022/01/15 04:12:36;;;;;;;28.02;12.88;;;3.40;88.20;;;;;;4976742;28;20400;-73
2022/01/15 04:15:03;;;;;;;26.35;13.35;;;3.40;86.50;;;;;;4976517;28;20420;-74
2022/01/15 04:17:28;;;;;;;26.57;13.70;;;3.40;86.80;;;;;;4967607;28;20488;-74
2022/01/15 04:19:54;;;;;;;23.38;12.43;;;3.40;86.30;;;;;;4971053;28;20900;-72
2022/01/15 04:22:19;;;;;;;22.45;12.20;;;3.40;83.60;;;;;;4970120;28;20396;-73
2022/01/15 04:24:45;;;;;;;23.30;11.90;;;3.30;84.10;;;;;;4981192;28;20435;-73
2022/01/15 04:27:11;;;;;;;23.55;12.48;;;3.30;84.10;;;;;;4981332;28;20388;-73
2022/01/15 04:29:36;;;;;;;22.23;12.50;;;3.20;85.10;;;;;;4977199;28;20388;-73
2022/01/15 04:32:02;;;;;;;26.23;13.18;;;3.30;84.90;;;;;;4973659;28;20396;-73
2022/01/15 04:34:30;;;;;;;25.25;12.98;;;3.30;85.60;;;;;;4966818;28;20415;-73
2022/01/15 04:37:03;;;;;;;22.63;12.50;;;3.20;84.00;;;;;;4972983;28;20400;-73
2022/01/15 04:39:30;;;;;;;24.10;13.07;;;3.30;85.60;;;;;;4973578;28;20515;-73
2022/01/15 04:41:56;;;;;;;22.70;13.02;;;3.30;83.10;;;;;;4973609;28;20391;-73
2022/01/15 04:44:22;;;;;;;23.38;12.13;;;3.30;80.80;;;;;;4973268;28;20947;-73
2022/01/15 04:46:48;;;;;;;25.20;13.13;;;3.30;81.30;;;;;;4973343;28;20471;-73
2022/01/15 04:49:13;;;;;;;27.83;13.75;;;3.20;82.40;;;;;;4969220;28;20410;-73
2022/01/15 04:51:39;;;;;;;26.65;13.43;;;3.30;83.20;;;;;;4983664;28;20415;-72
2022/01/15 04:54:05;;;;;;;25.83;13.27;;;3.30;81.90;;;;;;4983540;28;20901;-72
2022/01/15 04:56:30;;;;;;;24.83;14.00;;;3.30;81.10;;;;;;4973415;28;20427;-72
2022/01/15 04:58:56;;;;;;;24.67;13.00;;;3.30;80.80;;;;;;4973035;28;20431;-72
2022/01/15 05:01:22;;;;;;;24.20;13.45;;;3.30;79.40;;;;;;4970004;28;20408;-72
2022/01/15 05:03:48;;;;;;;24.95;13.23;;;3.20;79.70;;;;;;4975426;28;20406;-72
2022/01/15 05:06:14;;;;;;;25.52;13.82;;;3.20;80.70;;;;;;4987780;28;20407;-72
2022/01/15 05:08:41;;;;;;;30.00;13.43;;;3.20;80.70;;;;;;4988130;28;20555;-75
2022/01/15 05:11:15;;;;;;;26.27;14.07;;;3.20;82.20;;;;;;4985931;28;20435;-72
2022/01/15 05:13:41;;;;;;;27.45;14.55;;;3.10;83.30;;;;;;4972939;28;20420;-72
2022/01/15 05:16:07;;;;;;;25.20;14.07;;;3.20;82.60;;;;;;4965842;28;20883;-74
2022/01/15 05:18:33;;;;;;;23.97;13.50;;;3.20;80.60;;;;;;4974848;28;20443;-74
2022/01/15 05:20:59;;;;;;;25.95;14.10;;;3.20;80.80;;;;;;4960661;28;20425;-74
2022/01/15 05:23:24;;;;;;;31.70;14.00;;;3.30;79.10;;;;;;4968599;28;20882;-73
2022/01/15 05:25:50;;;;;;;31.90;15.97;;;3.20;79.50;;;;;;4975159;28;20472;-74
2022/01/15 05:28:15;;;;;;;28.98;15.00;;;3.20;79.50;;;;;;4966143;28;20439;-73
2022/01/15 05:30:41;;;;;;;29.50;15.40;;;3.30;79.00;;;;;;4973429;28;20388;-72
2022/01/15 05:33:06;;;;;;;29.33;14.63;;;3.20;79.10;;;;;;4972825;28;20400;-72
2022/01/15 05:35:32;;;;;;;26.17;14.52;;;3.20;79.20;;;;;;4973135;28;20416;-73
2022/01/15 05:37:59;;;;;;;30.60;15.35;;;3.20;78.00;;;;;;4972992;28;20500;-74
2022/01/15 05:40:26;;;;;;;33.10;15.90;;;3.20;78.60;;;;;;4973477;28;20408;-73
2022/01/15 05:42:52;;;;;;;31.77;15.68;;;3.10;79.50;;;;;;4967387;28;20398;-73
2022/01/15 05:45:18;;;;;;;28.65;14.60;;;3.10;80.30;;;;;;4974038;28;20392;-73
2022/01/15 05:47:44;;;;;;;30.35;15.73;;;3.20;79.60;;;;;;4994654;28;20394;-74
2022/01/15 05:50:10;;;;;;;36.77;17.40;;;3.10;80.00;;;;;;4985963;28;20400;-74
2022/01/15 05:52:36;;;;;;;34.33;17.35;;;3.20;80.20;;;;;;4968750;28;20769;-75
2022/01/15 05:55:02;;;;;;;34.33;16.70;;;3.20;80.90;;;;;;4984479;28;20408;-75
2022/01/15 05:57:28;;;;;;;32.47;16.73;;;3.10;80.40;;;;;;4980887;28;20404;-74
2022/01/15 05:59:53;;;;;;;29.33;16.27;;;3.10;81.30;;;;;;4978490;28;20467;-74
2022/01/15 06:02:20;;;;;;;37.13;17.80;;;3.10;80.10;;;;;;4977940;28;20418;-73
2022/01/15 06:04:46;;;;;;;36.60;17.30;;;3.10;81.30;;;;;;4977393;28;20802;-73
2022/01/15 06:07:11;;;;;;;35.47;17.10;;;3.00;82.30;;;;;;4975595;28;20404;-73
2022/01/15 06:09:37;;;;;;;31.90;16.10;;;3.10;81.80;;;;;;4975190;28;20488;-74
2022/01/15 06:12:03;;;;;;;33.33;17.08;;;3.00;81.30;;;;;;4975686;28;20474;-74
2022/01/15 06:14:30;;;;;;;30.65;16.77;;;3.10;80.80;;;;;;4972433;28;20902;-74
2022/01/15 06:16:56;;;;;;;31.08;16.20;;;3.10;78.90;;;;;;4977192;28;20409;-74
2022/01/15 06:19:22;;;;;;;33.00;16.83;;;3.10;77.60;;;;;;4975830;28;20425;-74
2022/01/15 06:21:48;;;;;;;31.70;16.83;;;3.10;77.50;;;;;;4960791;29;20414;-75
2022/01/15 06:24:13;;;;;;;32.13;17.50;;;3.10;78.70;;;;;;4966068;28;20432;-75
2022/01/15 06:26:39;;;;;;;33.67;17.43;;;3.10;79.10;;;;;;4973472;28;20412;-75
2022/01/15 06:29:05;;;;;;;29.60;14.90;;;3.10;79.10;;;;;;4969035;28;20413;-75
2022/01/15 06:31:31;;;;;;;26.90;14.50;;;3.10;76.80;;;;;;4980915;28;20422;-73
2022/01/15 06:33:57;;;;;;;28.80;14.95;;;3.10;77.20;;;;;;4973422;28;20423;-75
2022/01/15 06:36:23;;;;;;;28.15;14.35;;;3.10;77.50;;;;;;4974017;28;20391;-75
2022/01/15 06:38:49;;;;;;;30.38;15.93;;;3.00;77.70;;;;;;4972066;28;20773;-75
2022/01/15 06:41:14;;;;;;;26.48;15.00;;;3.00;78.20;;;;;;4972254;28;20443;-74
2022/01/15 06:43:40;;;;;;;29.45;15.30;;;3.00;79.20;;;;;;4967449;28;20425;-74
2022/01/15 06:46:06;;;;;;;30.47;15.60;;;3.00;77.90;;;;;;4977236;28;20393;-75
2022/01/15 06:48:32;;;;;;;29.73;15.48;;;3.00;77.70;;;;;;4992478;28;20398;-75
2022/01/15 06:50:58;;;;;;;31.70;15.83;;;3.00;77.10;;;;;;4975195;28;20413;-74
2022/01/15 06:53:24;;;;;;;30.63;16.42;;;2.90;78.40;;;;;;4972774;28;20408;-75
2022/01/15 06:55:52;;;;;;;30.23;16.00;;;2.90;80.10;;;;;;4973645;28;20388;-74
2022/01/15 06:58:20;;;;;;;30.23;16.35;;;2.90;82.10;;;;;;4972405;28;20392;-74
2022/01/15 07:00:46;;;;;;;30.67;16.23;;;2.90;82.60;;;;;;4973029;28;20404;-74
2022/01/15 07:03:12;;;;;;;31.48;15.95;;;2.90;83.50;;;;;;4973077;28;20408;-72
2022/01/15 07:05:37;;;;;;;32.03;16.20;;;3.00;81.60;;;;;;4975942;28;20400;-74
2022/01/15 07:08:03;;;;;;;38.47;17.55;;;3.00;80.70;;;;;;4976934;28;20411;-73
2022/01/15 07:10:29;;;;;;;31.00;16.92;;;3.00;81.20;;;;;;4975098;28;20400;-74
2022/01/15 07:12:54;;;;;;;30.20;16.00;;;3.00;80.00;;;;;;4972147;28;20478;-75
2022/01/15 07:15:20;;;;;;;33.42;16.63;;;3.10;79.70;;;;;;4972847;28;20404;-75
2022/01/15 07:17:48;;;;;;;33.42;16.17;;;3.00;79.60;;;;;;4973446;28;20430;-73
2022/01/15 07:20:14;;;;;;;31.35;15.77;;;3.10;80.40;;;;;;4965496;28;20425;-74
2022/01/15 07:22:41;;;;;;;29.65;15.57;;;3.10;78.60;;;;;;4976138;28;20408;-73
2022/01/15 07:25:08;;;;;;;32.50;15.90;;;3.10;78.60;;;;;;4968674;28;20396;-75
2022/01/15 07:27:33;;;;;;;30.57;15.60;;;3.10;78.90;;;;;;4972253;28;20405;-74
2022/01/15 07:30:01;;;;;;;33.40;16.05;;;3.10;80.50;;;;;;4972986;28;20448;-74
2022/01/15 07:32:26;;;;;;;30.73;15.27;;;3.10;79.80;;;;;;4975777;28;20400;-74
2022/01/15 07:34:52;;;;;;;31.90;16.02;;;3.20;78.30;;;;;;4969103;28;20423;-73
2022/01/15 07:37:17;;;;;;;32.42;16.75;;;3.20;78.40;;;;;;4974887;28;20858;-74
2022/01/15 07:39:43;;;;;;;31.37;15.70;;;3.10;80.10;;;;;;4975054;28;20799;-74
2022/01/15 07:42:10;;;;;;;32.77;16.50;;;3.20;79.50;;;;;;4974961;28;20390;-75
2022/01/15 07:44:35;;;;;;;33.42;16.13;;;3.10;80.70;;;;;;4974479;28;20491;-74
2022/01/15 07:47:01;;;;;;;31.45;15.98;;;3.20;80.40;;;;;;4976873;28;20503;-74
2022/01/15 07:49:27;;;;;;;36.80;16.95;;;3.20;78.50;;;;;;4962155;28;20812;-73
2022/01/15 07:51:52;;;;;;;36.77;17.40;;;3.20;79.40;;;;;;4973991;28;20829;-73
2022/01/15 07:54:18;;;;;;;29.67;16.20;;;3.20;80.40;;;;;;4972512;28;20412;-73
2022/01/15 07:56:44;;;;;;;36.20;16.50;;;3.40;77.60;;;;;;4957032;28;20831;-73
2022/01/15 07:59:09;;;;;;;29.67;15.52;;;3.30;78.20;;;;;;4968395;28;20376;-73
2022/01/15 08:01:35;;;;;;;35.77;16.23;;;3.40;78.70;;;;;;4977417;28;20467;-73
2022/01/15 08:04:02;;;;;;;33.70;16.70;;;3.50;78.10;;;;;;4977743;28;20392;-72
2022/01/15 08:06:28;;;;;;;34.25;17.38;;;3.50;76.20;;;;;;4972071;28;20402;-72
2022/01/15 08:08:53;;;;;;;36.20;16.97;;;3.50;75.80;;;;;;4971518;28;20821;-73
2022/01/15 08:11:19;;;;;;;33.90;16.47;;;3.40;77.80;;;;;;4972433;28;20423;-73
2022/01/15 08:13:44;;;;;;;31.27;16.20;;;3.50;77.50;;;;;;4977572;28;20478;-72
2022/01/15 08:16:10;;;;;;;32.73;17.53;;;3.50;76.80;;;;;;4975618;28;20402;-73
2022/01/15 08:18:36;;;;;;;31.52;16.45;;;3.50;76.60;;;;;;4974702;28;20392;-73
2022/01/15 08:21:03;;;;;;;35.53;18.00;;;3.50;77.10;;;;;;4965979;28;20463;-72
2022/01/15 08:23:29;;;;;;;35.15;18.40;;;3.50;77.00;;;;;;4970595;28;20903;-74
2022/01/15 08:25:55;;;;;;;35.22;17.88;;;3.40;78.20;;;;;;4966122;28;20735;-72
2022/01/15 08:28:20;;;;;;;38.03;17.92;;;3.40;79.10;;;;;;4972137;28;20404;-72
2022/01/15 08:30:46;;;;;;;35.38;17.60;;;3.50;78.20;;;;;;4973269;28;20415;-74
2022/01/15 08:33:12;;;;;;;37.10;18.88;;;3.60;75.80;;;;;;4972153;28;20439;-74
2022/01/15 08:35:37;;;;;;;35.78;18.00;;;3.50;76.80;;;;;;4973701;28;20470;-74
2022/01/15 08:38:03;;;;;;;33.47;17.57;;;3.60;76.90;;;;;;4971881;28;20472;-75
2022/01/15 08:40:32;;;;;;;34.38;17.40;;;3.60;77.40;;;;;;4966178;28;20819;-74
2022/01/15 08:42:58;;;;;;;35.38;17.30;;;3.60;77.20;;;;;;4971663;28;20480;-74
2022/01/15 08:45:24;;;;;;;31.40;17.47;;;3.70;75.90;;;;;;4966935;28;20390;-74
2022/01/15 08:47:49;;;;;;;32.67;16.23;;;3.90;72.70;;;;;;4968377;28;20407;-72
2022/01/15 08:50:16;;;;;;;30.63;16.27;;;3.80;72.70;;;;;;4959595;28;20431;-73
2022/01/15 08:52:41;;;;;;;27.58;15.27;;;3.80;74.80;;;;;;4973115;28;20966;-74
2022/01/15 08:55:08;;;;;;;32.42;15.32;;;3.80;74.90;;;;;;4971917;28;20563;-74
2022/01/15 08:57:34;;;;;;;32.40;16.17;;;3.90;73.10;;;;;;4970398;28;20670;-74
2022/01/15 09:00:01;;;;;;;22.90;14.38;;;3.90;71.80;;;;;;4964434;28;20800;-74
2022/01/15 09:02:26;;;;;;;24.05;14.05;;;3.90;70.60;;;;;;4973692;28;20424;-75
2022/01/15 09:04:53;;;;;;;24.45;13.18;;;4.00;70.50;;;;;;4967511;28;20422;-75
2022/01/15 09:07:18;;;;;;;25.85;13.93;;;4.00;70.10;;;;;;4973989;28;20877;-74
2022/01/15 09:09:44;;;;;;;26.50;14.30;;;4.00;71.40;;;;;;4973570;28;20463;-73
2022/01/15 09:12:11;;;;;;;25.75;13.40;;;4.10;69.30;;;;;;4970722;28;20419;-74
2022/01/15 09:14:38;;;;;;;24.65;13.65;;;4.10;67.20;;;;;;4973380;28;20892;-74
2022/01/15 09:17:03;;;;;;;24.02;13.70;;;4.10;68.30;;;;;;4961817;28;20409;-72
2022/01/15 09:19:29;;;;;;;24.55;13.15;;;4.10;68.90;;;;;;4964484;28;20898;-74
2022/01/15 09:21:54;;;;;;;23.48;13.13;;;4.20;67.60;;;;;;4959185;28;20434;-75
2022/01/15 09:24:20;;;;;;;25.52;14.95;;;4.20;67.40;;;;;;4959300;28;20411;-74
2022/01/15 09:31:57;;;;;;;26.67;14.50;;;4.20;69.10;;;;;;4970899;28;20876;-73
2022/01/15 09:34:23;;;;;;;26.60;14.10;;;4.30;68.50;;;;;;4967979;28;20408;-73
2022/01/15 09:36:49;;;;;;;27.55;14.18;;;4.40;65.50;;;;;;4970335;28;20911;-73
2022/01/15 09:39:15;;;;;;;26.10;14.00;;;4.50;64.30;;;;;;4966883;28;20830;-74
2022/01/15 09:41:48;;;;;;;24.10;14.30;;;4.50;63.60;;;;;;4976125;28;20444;-73
2022/01/15 09:44:16;;;;;;;24.52;13.45;;;4.40;65.30;;;;;;4983695;28;20447;-74
2022/01/15 09:46:42;;;;;;;25.48;13.68;;;4.40;64.70;;;;;;4983823;28;20416;-75
2022/01/15 09:49:13;;;;;;;22.42;13.10;;;4.50;64.50;;;;;;4979719;28;20412;-74
2022/01/15 09:51:38;;;;;;;25.73;14.07;;;4.50;65.80;;;;;;4971442;28;20489;-74
2022/01/15 09:54:04;;;;;;;21.87;13.10;;;4.60;65.40;;;;;;4983731;28;20412;-74
2022/01/15 09:56:30;;;;;;;22.25;11.80;;;4.60;64.40;;;;;;4966132;28;20766;-72
2022/01/15 09:58:57;;;;;;;20.60;12.15;;;4.60;62.90;;;;;;4968608;28;20400;-73
2022/01/15 10:01:26;;;;;;;22.90;12.35;;;4.50;64.40;;;;;;4970738;28;20411;-75
2022/01/15 10:03:52;;;;;;;20.93;12.10;;;4.50;65.50;;;;;;4965698;28;20404;-74
2022/01/15 10:06:18;;;;;;;20.83;11.82;;;4.50;66.80;;;;;;4970623;28;20478;-74
2022/01/15 10:09:02;;;;;;;20.27;11.48;;;4.60;64.70;;;;;;4971466;28;20423;-74
2022/01/15 10:11:44;;;;;;;21.80;11.90;;;4.70;63.10;;;;;;4971973;28;20462;-74
2022/01/15 10:14:31;;;;;;;20.95;10.95;;;4.70;63.40;;;;;;4971610;28;20447;-74
2022/01/15 10:16:59;;;;;;;20.33;11.50;;;4.70;63.20;;;;;;4972732;28;20395;-74
2022/01/15 10:19:42;;;;;;;17.15;10.55;;;4.80;63.80;;;;;;4971269;28;20400;-75
2022/01/15 10:22:10;;;;;;;16.75;11.27;;;4.80;62.50;;;;;;4972429;28;20416;-74
2022/01/15 10:24:38;;;;;;;17.05;10.20;;;4.90;62.30;;;;;;4972534;28;20440;-73
2022/01/15 10:27:21;;;;;;;20.47;10.93;;;4.90;62.40;;;;;;4976468;28;21065;-73
2022/01/15 10:29:59;;;;;;;16.92;9.88;;;5.00;61.40;;;;;;4977977;28;20392;-75
2022/01/15 10:32:27;;;;;;;17.40;9.65;;;5.20;60.40;;;;;;4975142;28;20471;-74
2022/01/15 10:34:53;;;;;;;16.65;10.07;;;5.10;59.90;;;;;;4979212;28;20424;-74
2022/01/15 10:37:22;;;;;;;18.52;9.98;;;5.10;60.30;;;;;;4971166;28;20487;-75
2022/01/15 10:39:55;;;;;;;15.55;9.90;;;5.10;60.70;;;;;;4972909;28;20408;-73
2022/01/15 10:42:23;;;;;;;15.87;9.43;;;5.20;58.80;;;;;;4968840;28;20977;-74
2022/01/15 10:44:53;;;;;;;15.15;9.90;;;5.20;59.20;;;;;;4970344;28;20447;-74
2022/01/15 10:47:21;;;;;;;16.33;9.90;;;5.20;59.30;;;;;;4969797;28;20420;-74
2022/01/15 10:49:46;;;;;;;15.57;9.75;;;5.30;60.00;;;;;;4966657;28;20483;-73
2022/01/15 10:52:20;;;;;;;18.20;10.40;;;5.30;58.90;;;;;;4969469;28;20797;-74
2022/01/15 10:54:52;;;;;;;15.80;9.40;;;5.40;57.00;;;;;;4972700;28;20450;-74
2022/01/15 10:57:22;;;;;;;16.52;9.40;;;5.40;57.40;;;;;;4991033;28;20443;-75
2022/01/15 11:00:06;;;;;;;16.95;9.60;;;5.40;58.00;;;;;;4980129;28;20401;-73
2022/01/15 11:02:31;;;;;;;15.00;9.00;;;5.50;57.60;;;;;;4976120;28;20442;-76
2022/01/15 11:04:57;;;;;;;13.35;8.95;;;5.60;57.10;;;;;;4971016;28;20503;-76
2022/01/15 11:07:23;;;;;;;14.30;9.00;;;5.50;56.60;;;;;;4955604;28;20400;-75
2022/01/15 11:09:53;;;;;;;13.43;8.90;;;5.50;56.40;;;;;;4961217;28;20423;-74
2022/01/15 11:12:24;;;;;;;14.73;9.02;;;5.50;56.20;;;;;;4974376;28;20426;-73
2022/01/15 11:14:49;;;;;;;17.98;9.02;;;5.70;56.70;;;;;;4970652;28;20419;-73
2022/01/15 11:17:15;;;;;;;16.33;9.20;;;5.70;55.20;;;;;;4973378;28;20894;-74
2022/01/15 11:19:44;;;;;;;15.73;9.18;;;5.80;56.00;;;;;;4973431;28;20757;-73
2022/01/15 11:22:10;;;;;;;14.55;9.20;;;5.80;55.50;;;;;;4975807;28;20414;-74
2022/01/15 11:24:36;;;;;;;20.17;9.40;;;5.80;54.60;;;;;;4973508;28;21105;-73
2022/01/15 11:27:02;;;;;;;11.90;8.70;;;5.80;54.70;;;;;;4974112;28;20408;-72
2022/01/15 11:29:28;;;;;;;16.40;9.13;;;5.80;55.30;;;;;;4970707;28;20544;-75
2022/01/15 11:31:59;;;;;;;15.52;8.77;;;5.80;54.90;;;;;;4973628;28;20399;-75
2022/01/15 11:34:26;;;;;;;14.35;9.55;;;5.80;55.70;;;;;;4973038;28;20426;-74
2022/01/15 11:36:52;;;;;;;14.15;9.18;;;5.80;56.70;;;;;;4973538;28;20411;-73
2022/01/15 11:39:33;;;;;;;13.55;9.30;;;5.80;55.30;;;;;;4979614;28;20402;-73
2022/01/15 11:42:01;;;;;;;13.77;9.10;;;5.80;55.60;;;;;;4971829;28;20461;-75
2022/01/15 11:44:31;;;;;;;14.50;8.65;;;5.90;56.00;;;;;;4972511;28;20414;-73
2022/01/15 11:47:00;;;;;;;15.40;8.97;;;6.00;55.00;;;;;;4971104;28;20416;-72
2022/01/15 11:49:34;;;;;;;13.18;8.40;;;6.00;54.40;;;;;;4971422;28;20466;-71
2022/01/15 11:52:06;;;;;;;13.20;8.90;;;6.00;53.50;;;;;;4971087;28;20927;-72
2022/01/15 11:54:33;;;;;;;12.85;8.60;;;6.00;52.70;;;;;;4977436;28;20554;-74
2022/01/15 11:57:03;;;;;;;11.35;8.00;;;5.90;53.90;;;;;;4969502;28;20416;-72
2022/01/15 11:59:28;;;;;;;14.80;8.90;;;5.90;54.60;;;;;;4972548;28;20825;-73
2022/01/15 12:01:59;;;;;;;14.80;9.20;;;5.80;55.40;;;;;;4972738;28;20415;-72
2022/01/15 12:04:32;;;;;;;16.67;9.80;;;5.90;55.80;;;;;;4972515;28;20486;-71
2022/01/15 12:07:00;;;;;;;13.38;8.70;;;6.00;54.70;;;;;;4974064;28;20428;-72
2022/01/15 12:09:41;;;;;;;11.30;8.20;;;6.00;54.50;;;;;;4973013;28;20408;-72
2022/01/15 12:12:19;;;;;;;12.50;8.80;;;6.00;53.50;;;;;;4973438;28;20540;-72
2022/01/15 12:14:59;;;;;;;15.90;9.60;;;6.00;54.20;;;;;;4972404;28;20474;-73
2022/01/15 12:17:32;;;;;;;15.02;8.88;;;6.00;54.60;;;;;;4966113;28;20399;-72
2022/01/15 12:20:00;;;;;;;12.73;8.20;;;6.10;54.20;;;;;;4973192;28;20407;-74
2022/01/15 12:22:55;;;;;;;13.77;9.00;;;6.00;55.70;;;;;;4966316;28;20409;-73
2022/01/15 12:25:26;;;;;;;15.05;8.85;;;5.90;55.50;;;;;;4969376;28;20419;-73
2022/01/15 12:28:07;;;;;;;13.40;8.55;;;5.90;56.80;;;;;;4973739;28;20422;-72
2022/01/15 12:30:40;;;;;;;14.43;9.43;;;6.00;55.70;;;;;;4971994;28;20400;-72
2022/01/15 12:33:08;;;;;;;13.50;8.73;;;6.10;54.80;;;;;;4985741;28;20414;-73
2022/01/15 12:35:36;;;;;;;12.10;8.63;;;6.00;55.00;;;;;;4971626;28;20412;-73
2022/01/15 12:38:05;;;;;;;11.35;8.27;;;6.00;55.40;;;;;;4966502;28;20392;-73
2022/01/15 12:40:34;;;;;;;13.07;7.60;;;6.00;54.90;;;;;;4974564;28;20459;-74
2022/01/15 12:43:03;;;;;;;12.82;8.07;;;6.00;54.80;;;;;;4971385;28;20424;-74
2022/01/15 12:45:29;;;;;;;12.07;8.20;;;6.00;55.50;;;;;;4972507;28;20419;-75
2022/01/15 12:47:56;;;;;;;11.63;8.30;;;5.90;57.00;;;;;;4973498;28;20791;-74
2022/01/15 12:50:22;;;;;;;11.80;7.47;;;6.10;55.70;;;;;;4970113;28;20428;-74
2022/01/15 12:52:58;;;;;;;9.93;7.27;;;6.20;56.40;;;;;;4965521;28;20400;-72
2022/01/15 12:55:29;;;;;;;11.88;7.50;;;6.20;55.90;;;;;;4974708;28;20437;-73
2022/01/15 12:57:54;;;;;;;12.43;7.82;;;6.30;54.90;;;;;;4974390;28;20400;-73
2022/01/15 13:00:26;;;;;;;11.40;8.00;;;6.30;54.40;;;;;;4969892;28;20487;-74
2022/01/15 13:03:25;;;;;;;12.68;8.20;;;6.20;54.50;;;;;;4973871;28;20437;-73
2022/01/15 13:06:00;;;;;;;10.90;8.10;;;6.30;55.20;;;;;;4958537;28;20427;-74
2022/01/15 13:08:28;;;;;;;10.00;6.87;;;6.50;55.30;;;;;;4972387;28;20508;-73